Route Details

Aircraft Information
Group: Trans-Atlantic Ops
Types: B744, MD11, B763
Route Data
Distance: 3471nm
Duration: 0h 00m
Origin METAR: KIAD 260139Z 00000KT 10SM TS FEW065CB BKN085 BKN120 BKN170 BKN250 23/20 A2985 RMK AO2 TSB39 OCNL LTGICCG N AND NW TS N AND NW MOV SE T02280200 $
Dest. METAR: EDDK 260120Z AUTO VRB01KT CAVOK 11/11 Q1017 NOSIG
Freight Data
(for May 26, 2024)
Load Factor:
57%
Manifested Cargo: 117,219lbs
Financial History
Total Freight: 289,363lbs
Average Load: 0lbs/flt
Fuel Used: 424,671lbs
Avg. Fuel Used: 0lbs/flt
Fuel Expense: $233,928
Avg. Fuel Expense: $0
Avg. Fuel Cost: $0/lbs
Total Gross Income: $665,535
Pilot Pay: $587
Total Expenses: $134,795
Total Revenue: $289,008
Average Revenue: $0

Capitol Logistics 309




KIAD
Washington Dulles International Airport
Dulles, Virginia
EDDK
Cologne Bonn Airport
Cologne,